createdAt,value
2019-03-29T00:00:01.752Z,0.00
2019-03-29T00:01:01.739Z,0.00
2019-03-29T00:02:01.730Z,0.00
2019-03-29T00:03:01.723Z,0.00
2019-03-29T00:04:01.714Z,0.00
2019-03-29T00:05:01.706Z,0.00
2019-03-29T00:06:01.694Z,0.00
2019-03-29T00:07:01.684Z,0.00
2019-03-29T00:08:01.671Z,0.00
2019-03-29T00:09:02.084Z,0.00
2019-03-29T00:10:01.653Z,0.00
2019-03-29T00:11:01.645Z,0.00
2019-03-29T00:12:01.629Z,0.00
2019-03-29T00:13:01.621Z,0.00
2019-03-29T00:14:01.614Z,0.00
2019-03-29T00:15:01.611Z,0.00
2019-03-29T00:16:01.597Z,0.00
2019-03-29T00:17:01.589Z,0.00
2019-03-29T00:18:01.577Z,0.00
2019-03-29T00:19:02.047Z,0.00
2019-03-29T00:20:01.556Z,0.00
2019-03-29T00:21:01.545Z,0.00
2019-03-29T00:22:01.537Z,0.00
2019-03-29T00:23:01.526Z,0.00
2019-03-29T00:24:07.068Z,0.00
2019-03-29T00:25:01.511Z,0.00
2019-03-29T00:26:01.496Z,0.00
2019-03-29T00:27:01.487Z,0.00
2019-03-29T00:28:01.483Z,0.00
2019-03-29T00:29:01.476Z,0.00
2019-03-29T00:30:01.461Z,0.00
2019-03-29T00:31:01.450Z,0.00
2019-03-29T00:32:01.438Z,0.00
2019-03-29T00:33:01.426Z,0.00
2019-03-29T00:34:01.418Z,0.00
2019-03-29T00:35:01.407Z,0.00
2019-03-29T00:36:01.410Z,0.00
2019-03-29T00:37:01.391Z,0.00
2019-03-29T00:38:01.384Z,0.00
2019-03-29T00:39:01.382Z,0.00
2019-03-29T00:40:01.361Z,0.00
2019-03-29T00:41:01.350Z,0.00
2019-03-29T00:42:01.345Z,0.00
2019-03-29T00:43:01.334Z,0.00
2019-03-29T00:44:01.349Z,0.00
2019-03-29T00:45:01.311Z,0.00
2019-03-29T00:46:01.298Z,0.00
2019-03-29T00:47:01.289Z,0.00
2019-03-29T00:48:01.282Z,0.00
2019-03-29T00:49:01.273Z,0.00
2019-03-29T00:50:01.266Z,0.00
2019-03-29T00:51:01.254Z,0.00
2019-03-29T00:52:01.239Z,0.00
2019-03-29T00:53:01.228Z,0.00
2019-03-29T00:54:01.944Z,0.00
2019-03-29T00:55:01.212Z,0.00
2019-03-29T00:56:01.303Z,0.00
2019-03-29T00:57:01.250Z,0.00
2019-03-29T00:58:01.184Z,0.00
2019-03-29T00:59:01.172Z,0.00
2019-03-29T01:00:01.168Z,0.00
2019-03-29T01:01:01.174Z,0.00
2019-03-29T01:02:01.146Z,0.00
2019-03-29T01:03:01.135Z,0.00
2019-03-29T01:04:01.120Z,0.00
2019-03-29T01:05:01.113Z,0.00
2019-03-29T01:06:01.101Z,0.00
2019-03-29T01:07:01.091Z,0.00
2019-03-29T01:08:07.729Z,0.00
2019-03-29T01:09:01.075Z,0.00
2019-03-29T01:10:01.070Z,0.00
2019-03-29T01:11:01.056Z,0.00
2019-03-29T01:12:01.045Z,0.00
2019-03-29T01:13:01.031Z,0.00
2019-03-29T01:14:01.028Z,0.00
2019-03-29T01:15:01.016Z,0.00
2019-03-29T01:16:01.179Z,0.00
2019-03-29T01:17:00.994Z,0.00
2019-03-29T01:18:00.983Z,0.00
2019-03-29T01:19:00.968Z,0.00
2019-03-29T01:20:00.964Z,0.00
2019-03-29T01:21:01.023Z,0.00
2019-03-29T01:22:00.948Z,0.00
2019-03-29T01:23:00.936Z,0.00
2019-03-29T01:24:00.921Z,0.00
2019-03-29T01:25:00.914Z,0.00
2019-03-29T01:26:01.121Z,0.00
2019-03-29T01:27:00.887Z,0.00
2019-03-29T01:28:00.887Z,0.00
2019-03-29T01:29:00.875Z,0.00
2019-03-29T01:30:00.859Z,0.00
2019-03-29T01:31:00.849Z,0.00
2019-03-29T01:32:00.842Z,0.00
2019-03-29T01:33:00.833Z,0.00
2019-03-29T01:34:00.833Z,0.00
2019-03-29T01:35:00.816Z,0.00
2019-03-29T01:36:01.296Z,0.00
2019-03-29T01:37:00.791Z,0.00
2019-03-29T01:38:00.781Z,0.00
2019-03-29T01:39:00.768Z,0.00
2019-03-29T01:40:00.764Z,0.00
2019-03-29T01:41:01.118Z,0.00
2019-03-29T01:42:00.741Z,0.00
2019-03-29T01:43:00.731Z,0.00
2019-03-29T01:44:01.876Z,0.00
2019-03-29T01:45:00.707Z,0.00
2019-03-29T01:46:00.700Z,0.00
2019-03-29T01:47:00.689Z,0.00
2019-03-29T01:48:00.675Z,0.00
2019-03-29T01:49:00.665Z,0.00
2019-03-29T01:50:00.658Z,0.00
2019-03-29T01:51:01.299Z,0.00
2019-03-29T01:52:00.640Z,0.00
2019-03-29T01:53:00.632Z,0.00
2019-03-29T01:54:00.621Z,0.00
2019-03-29T01:55:00.610Z,0.00
2019-03-29T01:56:00.596Z,0.00
2019-03-29T01:57:00.586Z,0.00
2019-03-29T01:58:00.574Z,0.00
2019-03-29T01:59:00.563Z,0.00
2019-03-29T02:00:00.559Z,0.00
2019-03-29T02:01:00.548Z,0.00
2019-03-29T02:02:00.535Z,0.00
2019-03-29T02:03:00.523Z,0.00
2019-03-29T02:04:00.518Z,0.00
2019-03-29T02:05:01.171Z,0.00
2019-03-29T02:06:00.497Z,0.00
2019-03-29T02:07:00.489Z,0.00
2019-03-29T02:08:00.475Z,0.00
2019-03-29T02:09:00.466Z,0.00
2019-03-29T02:10:00.452Z,0.00
2019-03-29T02:11:00.442Z,0.00
2019-03-29T02:12:00.439Z,0.00
2019-03-29T02:13:00.426Z,0.00
2019-03-29T02:14:00.415Z,0.00
2019-03-29T02:15:00.403Z,0.00
2019-03-29T02:16:00.389Z,0.00
2019-03-29T02:17:00.378Z,0.00
2019-03-29T02:18:00.374Z,0.00
2019-03-29T02:19:00.363Z,0.00
2019-03-29T02:20:00.346Z,0.00
2019-03-29T02:21:00.338Z,0.00
2019-03-29T02:22:00.331Z,0.00
2019-03-29T02:23:00.319Z,0.00
2019-03-29T02:24:00.317Z,0.00
2019-03-29T02:25:00.442Z,0.00
2019-03-29T02:26:00.291Z,0.00
2019-03-29T02:27:00.980Z,0.00
2019-03-29T02:28:00.264Z,0.00
2019-03-29T02:29:00.254Z,0.00
2019-03-29T02:30:00.561Z,0.00
2019-03-29T02:31:00.236Z,0.00
2019-03-29T02:32:00.232Z,0.00
2019-03-29T02:33:00.224Z,0.00
2019-03-29T02:34:00.212Z,0.00
2019-03-29T02:35:00.474Z,0.00
2019-03-29T02:36:00.198Z,0.00
2019-03-29T02:37:01.940Z,0.00
2019-03-29T02:38:00.185Z,0.00
2019-03-29T02:39:00.157Z,0.00
2019-03-29T02:40:00.632Z,0.00
2019-03-29T02:41:00.136Z,0.00
2019-03-29T02:42:00.123Z,0.00
2019-03-29T02:43:00.117Z,0.00
2019-03-29T02:44:00.105Z,0.00
2019-03-29T02:45:00.455Z,0.00
2019-03-29T02:46:00.090Z,0.00
2019-03-29T02:47:00.080Z,0.00
2019-03-29T02:48:00.065Z,0.00
2019-03-29T02:49:00.055Z,0.00
2019-03-29T02:50:00.052Z,0.00
2019-03-29T02:51:00.037Z,0.00
2019-03-29T02:52:00.024Z,0.00
2019-03-29T02:53:00.015Z,0.00
2019-03-29T02:54:00.001Z,0.00
2019-03-29T02:54:59.989Z,0.00
2019-03-29T02:55:59.985Z,0.00
2019-03-29T02:56:59.974Z,0.00
2019-03-29T02:57:59.964Z,0.00
2019-03-29T02:58:59.956Z,0.00
2019-03-29T02:59:59.941Z,0.00
2019-03-29T03:00:59.941Z,0.00
2019-03-29T03:01:59.923Z,0.00
2019-03-29T03:02:59.910Z,0.00
2019-03-29T03:03:59.907Z,0.00
2019-03-29T03:04:59.896Z,0.00
2019-03-29T03:05:59.883Z,0.00
2019-03-29T03:06:59.873Z,0.00
2019-03-29T03:07:59.868Z,0.00
2019-03-29T03:09:13.110Z,0.00
2019-03-29T03:09:59.844Z,0.00
2019-03-29T03:10:59.836Z,0.00
2019-03-29T03:11:59.830Z,0.00
2019-03-29T03:12:59.809Z,0.00
2019-03-29T03:13:59.801Z,0.00
2019-03-29T03:14:59.787Z,0.00
2019-03-29T03:15:59.784Z,0.00
2019-03-29T03:16:59.773Z,0.00
2019-03-29T03:17:59.765Z,0.00
2019-03-29T03:18:59.761Z,0.00
2019-03-29T03:19:59.740Z,0.00
2019-03-29T03:20:59.733Z,0.00
2019-03-29T03:21:59.728Z,0.00
2019-03-29T03:22:59.714Z,0.00
2019-03-29T03:23:59.700Z,0.00
2019-03-29T03:24:59.697Z,0.00
2019-03-29T03:25:59.677Z,0.00
2019-03-29T03:26:59.667Z,0.00
2019-03-29T03:27:59.662Z,0.00
2019-03-29T03:28:59.652Z,0.00
2019-03-29T03:29:59.649Z,0.00
2019-03-29T03:30:59.633Z,0.00
2019-03-29T03:31:59.620Z,0.00
2019-03-29T03:32:59.609Z,0.00
2019-03-29T03:33:59.599Z,0.00
2019-03-29T03:34:59.585Z,0.00
2019-03-29T03:35:59.579Z,0.00
2019-03-29T03:36:59.570Z,0.00
2019-03-29T03:37:59.556Z,0.00
2019-03-29T03:38:59.545Z,0.00
2019-03-29T03:39:59.551Z,0.00
2019-03-29T03:40:59.545Z,0.00
2019-03-29T03:41:59.709Z,0.00
2019-03-29T03:42:59.515Z,0.00
2019-03-29T03:43:59.496Z,0.00
2019-03-29T03:44:59.486Z,0.00
2019-03-29T03:45:59.474Z,0.00
2019-03-29T03:46:59.481Z,0.00
2019-03-29T03:47:59.457Z,0.00
2019-03-29T03:48:59.459Z,0.00
2019-03-29T03:50:01.148Z,0.00
2019-03-29T03:50:59.424Z,0.00
2019-03-29T03:51:59.409Z,0.00
2019-03-29T03:52:59.399Z,0.00
2019-03-29T03:53:59.405Z,0.00
2019-03-29T03:54:59.390Z,0.00
2019-03-29T03:55:59.369Z,0.00
2019-03-29T03:56:59.359Z,0.00
2019-03-29T03:57:59.352Z,0.00
2019-03-29T03:58:59.341Z,0.00
2019-03-29T03:59:59.345Z,0.00
2019-03-29T04:00:59.353Z,0.00
2019-03-29T04:01:59.313Z,0.00
2019-03-29T04:02:59.308Z,0.00
2019-03-29T04:03:59.289Z,0.00
2019-03-29T04:04:59.284Z,0.00
2019-03-29T04:05:59.267Z,0.00
2019-03-29T04:06:59.254Z,0.00
2019-03-29T04:07:59.251Z,0.00
2019-03-29T04:08:59.237Z,0.00
2019-03-29T04:09:59.225Z,0.00
2019-03-29T04:10:59.216Z,0.00
2019-03-29T04:11:59.208Z,0.00
2019-03-29T04:12:59.202Z,0.00
2019-03-29T04:13:59.192Z,0.00
2019-03-29T04:14:59.180Z,0.00
2019-03-29T04:15:59.167Z,0.00
2019-03-29T04:16:59.159Z,0.00
2019-03-29T04:17:59.146Z,0.00
2019-03-29T04:18:59.134Z,0.00
2019-03-29T04:19:59.130Z,0.00
2019-03-29T04:20:59.116Z,0.00
2019-03-29T04:21:59.104Z,0.00
2019-03-29T04:22:59.100Z,0.00
2019-03-29T04:23:59.078Z,0.00
2019-03-29T04:24:59.069Z,0.00
2019-03-29T04:25:59.063Z,0.00
2019-03-29T04:26:59.053Z,0.00
2019-03-29T04:27:59.035Z,0.00
2019-03-29T04:29:04.902Z,0.00
2019-03-29T04:29:59.017Z,0.00
2019-03-29T04:30:59.010Z,0.00
2019-03-29T04:31:59.008Z,0.00
2019-03-29T04:32:59.157Z,0.00
2019-03-29T04:33:58.982Z,0.00
2019-03-29T04:34:58.970Z,0.00
2019-03-29T04:35:58.959Z,0.00
2019-03-29T04:36:58.943Z,0.00
2019-03-29T04:37:58.932Z,0.00
2019-03-29T04:38:58.921Z,0.00
2019-03-29T04:40:07.158Z,0.00
2019-03-29T04:40:58.904Z,0.00
2019-03-29T04:41:58.894Z,0.00
2019-03-29T04:42:58.877Z,4.00
2019-03-29T04:43:58.872Z,0.00
2019-03-29T04:44:59.978Z,4.00
2019-03-29T04:45:58.852Z,4.00
2019-03-29T04:46:58.842Z,4.00
2019-03-29T04:47:58.828Z,4.00
2019-03-29T04:48:58.819Z,4.00
2019-03-29T04:49:58.815Z,4.00
2019-03-29T04:50:58.797Z,8.00
2019-03-29T04:51:58.788Z,8.00
2019-03-29T04:52:58.779Z,8.00
2019-03-29T04:53:58.766Z,12.00
2019-03-29T04:54:58.754Z,16.00
2019-03-29T04:55:58.741Z,20.00
2019-03-29T04:56:58.728Z,20.00
2019-03-29T04:57:58.809Z,24.00
2019-03-29T04:58:58.712Z,28.00
2019-03-29T04:59:58.699Z,36.00
2019-03-29T05:00:58.688Z,36.00
2019-03-29T05:01:58.681Z,44.00
2019-03-29T05:02:58.676Z,52.00
2019-03-29T05:03:58.661Z,60.00
2019-03-29T05:04:58.652Z,68.00
2019-03-29T05:05:58.641Z,80.00
2019-03-29T05:06:58.630Z,88.00
2019-03-29T05:07:58.617Z,100.00
2019-03-29T05:08:58.604Z,112.00
2019-03-29T05:09:58.590Z,128.00
2019-03-29T05:10:58.579Z,144.00
2019-03-29T05:11:58.575Z,160.00
2019-03-29T05:12:59.723Z,180.00
2019-03-29T05:13:58.549Z,196.00
2019-03-29T05:14:58.540Z,216.00
2019-03-29T05:15:58.532Z,240.00
2019-03-29T05:16:58.524Z,264.00
2019-03-29T05:17:58.513Z,288.00
2019-03-29T05:18:58.500Z,312.00
2019-03-29T05:19:58.486Z,340.00
2019-03-29T05:20:58.475Z,372.00
2019-03-29T05:21:58.465Z,400.00
2019-03-29T05:22:58.454Z,432.00
2019-03-29T05:23:58.447Z,464.00
2019-03-29T05:24:58.437Z,504.00
2019-03-29T05:25:58.425Z,540.00
2019-03-29T05:26:58.413Z,584.00
2019-03-29T05:27:58.397Z,624.00
2019-03-29T05:28:58.388Z,672.00
2019-03-29T05:29:58.383Z,716.00
2019-03-29T05:30:58.369Z,768.00
2019-03-29T05:31:58.357Z,816.00
2019-03-29T05:32:58.347Z,872.00
2019-03-29T05:33:58.337Z,924.00
2019-03-29T05:34:58.327Z,980.00
2019-03-29T05:35:58.318Z,1040.00
2019-03-29T05:36:58.659Z,1108.00
2019-03-29T05:37:58.297Z,1204.00
2019-03-29T05:38:58.286Z,1448.00
2019-03-29T05:39:58.285Z,1812.00
2019-03-29T05:40:58.259Z,2172.00
2019-03-29T05:41:58.252Z,2404.00
2019-03-29T05:42:58.243Z,2616.00
2019-03-29T05:43:58.234Z,2844.00
2019-03-29T05:44:58.227Z,3032.00
2019-03-29T05:45:58.210Z,3244.00
2019-03-29T05:46:58.200Z,3484.00
2019-03-29T05:47:58.195Z,3716.00
2019-03-29T05:48:58.190Z,3972.00
2019-03-29T05:49:58.172Z,4240.00
2019-03-29T05:50:58.162Z,4556.00
2019-03-29T05:51:58.146Z,4836.00
2019-03-29T05:52:58.139Z,5112.00
2019-03-29T05:53:58.129Z,5304.00
2019-03-29T05:54:58.119Z,5560.00
2019-03-29T05:55:58.114Z,5912.00
2019-03-29T05:56:58.106Z,6208.00
2019-03-29T05:57:58.099Z,6540.00
2019-03-29T05:58:58.089Z,6812.00
2019-03-29T05:59:58.077Z,7024.00
2019-03-29T06:00:58.068Z,7312.00
2019-03-29T06:01:58.064Z,7608.00
2019-03-29T06:02:58.057Z,7892.00
2019-03-29T06:03:58.043Z,8216.00
2019-03-29T06:04:58.037Z,8456.00
2019-03-29T06:05:58.026Z,8844.00
2019-03-29T06:06:58.020Z,9152.00
2019-03-29T06:07:58.017Z,9440.00
2019-03-29T06:08:58.008Z,9760.00
2019-03-29T06:09:58.002Z,10036.00
2019-03-29T06:10:57.993Z,10400.00
2019-03-29T06:11:57.982Z,10720.00
2019-03-29T06:12:57.978Z,11096.00
2019-03-29T06:13:57.972Z,11460.00
2019-03-29T06:14:57.966Z,11808.00
2019-03-29T06:15:57.963Z,12192.00
2019-03-29T06:16:57.957Z,12544.00
2019-03-29T06:17:57.948Z,12832.00
2019-03-29T06:18:57.943Z,13152.00
2019-03-29T06:19:57.940Z,13504.00
2019-03-29T06:20:57.936Z,13824.00
2019-03-29T06:21:57.930Z,14208.00
2019-03-29T06:22:57.924Z,14528.00
2019-03-29T06:23:57.914Z,14784.00
2019-03-29T06:24:57.908Z,15072.00
2019-03-29T06:25:57.906Z,15392.00
2019-03-29T06:26:57.985Z,15776.00
2019-03-29T06:27:57.902Z,16000.00
2019-03-29T06:28:57.897Z,16256.00
2019-03-29T06:29:57.896Z,16480.00
2019-03-29T06:30:57.897Z,16832.00
2019-03-29T06:31:57.885Z,17120.00
2019-03-29T06:32:57.884Z,17440.00
2019-03-29T06:33:57.883Z,17600.00
2019-03-29T06:34:57.880Z,17888.00
2019-03-29T06:35:57.873Z,18080.00
2019-03-29T06:36:57.870Z,18528.00
2019-03-29T06:37:57.867Z,18816.00
2019-03-29T06:38:57.864Z,19104.00
2019-03-29T06:39:57.866Z,19328.00
2019-03-29T06:41:03.241Z,19616.00
2019-03-29T06:41:57.866Z,19904.00
2019-03-29T06:42:57.864Z,20192.00
2019-03-29T06:43:57.861Z,20448.00
2019-03-29T06:44:57.859Z,20640.00
2019-03-29T06:45:57.856Z,20960.00
2019-03-29T06:46:57.855Z,21248.00
2019-03-29T06:47:57.858Z,21440.00
2019-03-29T06:48:57.860Z,21760.00
2019-03-29T06:49:57.853Z,21920.00
2019-03-29T06:50:57.857Z,22176.00
2019-03-29T06:51:57.857Z,22368.00
2019-03-29T06:52:57.860Z,22592.00
2019-03-29T06:53:57.865Z,22848.00
2019-03-29T06:54:57.863Z,22944.00
2019-03-29T06:55:59.475Z,23296.00
2019-03-29T06:56:57.861Z,23456.00
2019-03-29T06:57:57.865Z,23648.00
2019-03-29T06:58:57.862Z,23808.00
2019-03-29T06:59:57.868Z,23936.00
2019-03-29T07:00:57.869Z,24224.00
2019-03-29T07:01:57.873Z,24352.00
2019-03-29T07:02:57.872Z,24512.00
2019-03-29T07:03:57.868Z,24672.00
2019-03-29T07:04:57.871Z,24864.00
2019-03-29T07:05:57.879Z,25088.00
2019-03-29T07:06:57.881Z,25184.00
2019-03-29T07:07:57.879Z,25440.00
2019-03-29T07:08:57.881Z,25664.00
2019-03-29T07:09:57.888Z,25824.00
2019-03-29T07:10:57.890Z,26144.00
2019-03-29T07:11:57.898Z,26400.00
2019-03-29T07:12:57.903Z,26528.00
2019-03-29T07:13:58.262Z,26624.00
2019-03-29T07:14:57.906Z,26688.00
2019-03-29T07:15:57.909Z,26816.00
2019-03-29T07:16:57.911Z,27008.00
2019-03-29T07:17:57.911Z,27264.00
2019-03-29T07:18:57.916Z,27392.00
2019-03-29T07:19:57.923Z,27616.00
2019-03-29T07:20:57.930Z,27776.00
2019-03-29T07:21:57.928Z,27904.00
2019-03-29T07:22:57.930Z,27904.00
2019-03-29T07:23:57.941Z,28160.00
2019-03-29T07:24:57.943Z,28256.00
2019-03-29T07:25:57.951Z,28384.00
2019-03-29T07:26:57.954Z,28544.00
2019-03-29T07:27:57.953Z,28704.00
2019-03-29T07:28:57.959Z,28800.00
2019-03-29T07:29:57.963Z,28992.00
2019-03-29T07:30:57.967Z,29120.00
2019-03-29T07:31:57.975Z,29280.00
2019-03-29T07:32:57.980Z,29280.00
2019-03-29T07:33:57.983Z,29504.00
2019-03-29T07:34:57.989Z,29632.00
2019-03-29T07:35:57.990Z,29600.00
2019-03-29T07:36:57.991Z,29696.00
2019-03-29T07:37:58.000Z,29952.00
2019-03-29T07:38:58.005Z,30208.00
2019-03-29T07:39:58.004Z,30144.00
2019-03-29T07:40:58.010Z,30304.00
2019-03-29T07:41:58.021Z,30496.00
2019-03-29T07:42:58.020Z,30528.00
2019-03-29T07:43:58.031Z,30784.00
2019-03-29T07:44:58.037Z,30720.00
2019-03-29T07:45:58.038Z,30848.00
2019-03-29T07:46:58.045Z,31104.00
2019-03-29T07:47:58.044Z,31040.00
2019-03-29T07:48:58.052Z,31136.00
2019-03-29T07:49:58.060Z,31392.00
2019-03-29T07:50:58.065Z,31616.00
2019-03-29T07:51:58.077Z,31680.00
2019-03-29T07:52:58.081Z,31808.00
2019-03-29T07:53:58.085Z,31840.00
2019-03-29T07:54:58.095Z,32128.00
2019-03-29T07:55:58.107Z,32128.00
2019-03-29T07:56:58.111Z,32224.00
2019-03-29T07:57:58.115Z,32448.00
2019-03-29T07:58:58.119Z,32640.00
2019-03-29T07:59:58.122Z,32672.00
2019-03-29T08:00:58.128Z,32800.00
2019-03-29T08:01:58.138Z,33024.00
2019-03-29T08:02:58.142Z,33184.00
2019-03-29T08:03:58.156Z,33440.00
2019-03-29T08:04:58.165Z,33696.00
2019-03-29T08:05:58.171Z,33792.00
2019-03-29T08:06:58.178Z,33984.00
2019-03-29T08:07:58.182Z,34240.00
2019-03-29T08:08:58.191Z,34336.00
2019-03-29T08:09:58.203Z,34368.00
2019-03-29T08:10:59.075Z,34880.00
2019-03-29T08:11:58.214Z,35392.00
2019-03-29T08:12:58.222Z,35840.00
2019-03-29T08:13:58.227Z,36096.00
2019-03-29T08:14:58.236Z,36096.00
2019-03-29T08:15:58.247Z,36320.00
2019-03-29T08:16:58.257Z,37280.00
2019-03-29T08:18:01.363Z,38272.00
2019-03-29T08:18:58.272Z,39552.00
2019-03-29T08:20:35.986Z,41472.00
2019-03-29T08:20:58.293Z,44608.00
2019-03-29T08:21:58.300Z,48864.00
2019-03-29T08:22:58.305Z,51520.00
2019-03-29T08:23:58.318Z,54528.00
2019-03-29T08:24:59.332Z,55552.00
2019-03-29T08:25:58.335Z,55840.00
2019-03-29T08:26:58.343Z,55648.00
2019-03-29T08:27:58.355Z,46208.00
2019-03-29T08:28:58.364Z,48160.00
2019-03-29T08:29:58.369Z,50720.00
2019-03-29T08:30:58.378Z,53664.00
2019-03-29T08:31:58.381Z,56512.00
2019-03-29T08:32:58.390Z,60768.00
2019-03-29T08:33:58.401Z,63648.00
2019-03-29T08:34:58.410Z,68576.00
2019-03-29T08:35:58.422Z,68800.00
2019-03-29T08:36:58.433Z,74912.00
2019-03-29T08:37:58.444Z,80096.00
2019-03-29T08:38:58.452Z,87104.00
2019-03-29T08:39:58.462Z,90592.00
2019-03-29T08:40:58.467Z,89408.00
2019-03-29T08:42:00.323Z,84096.00
2019-03-29T08:42:58.492Z,70304.00
2019-03-29T08:43:58.496Z,60160.00
2019-03-29T08:44:58.507Z,49536.00
2019-03-29T08:45:58.515Z,46016.00
2019-03-29T08:46:58.524Z,45248.00
2019-03-29T08:47:58.538Z,44576.00
2019-03-29T08:48:58.547Z,42848.00
2019-03-29T08:49:58.556Z,39584.00
2019-03-29T08:50:58.567Z,35808.00
2019-03-29T08:51:58.581Z,33472.00
2019-03-29T08:52:58.591Z,31360.00
2019-03-29T08:53:58.603Z,30656.00
2019-03-29T08:54:58.609Z,29184.00
2019-03-29T08:55:58.620Z,28800.00
2019-03-29T08:56:58.627Z,28928.00
2019-03-29T08:57:58.643Z,29056.00
2019-03-29T08:58:58.654Z,29472.00
2019-03-29T08:59:58.661Z,29024.00
2019-03-29T09:00:58.674Z,28768.00
2019-03-29T09:01:58.686Z,29440.00
2019-03-29T09:02:58.713Z,28864.00
2019-03-29T09:04:05.008Z,29152.00
2019-03-29T09:04:58.724Z,29664.00
2019-03-29T09:05:58.737Z,30112.00
2019-03-29T09:06:58.747Z,31648.00
2019-03-29T09:07:58.758Z,32352.00
2019-03-29T09:08:58.769Z,31008.00
2019-03-29T09:09:58.776Z,29472.00
2019-03-29T09:10:58.790Z,28896.00
2019-03-29T09:11:58.804Z,28544.00
2019-03-29T09:12:58.818Z,27968.00
2019-03-29T09:13:58.826Z,27936.00
2019-03-29T09:14:58.836Z,28064.00
2019-03-29T09:15:58.856Z,27872.00
2019-03-29T09:16:58.864Z,27392.00
2019-03-29T09:18:00.005Z,27584.00
2019-03-29T09:18:58.891Z,27680.00
2019-03-29T09:19:58.899Z,27360.00
2019-03-29T09:20:58.936Z,27168.00
2019-03-29T09:21:58.925Z,27648.00
2019-03-29T09:22:58.972Z,27840.00
2019-03-29T09:23:58.954Z,27840.00
2019-03-29T09:24:58.966Z,27520.00
2019-03-29T09:25:58.979Z,27968.00
2019-03-29T09:26:58.990Z,27840.00
2019-03-29T09:27:58.999Z,27712.00
2019-03-29T09:28:59.011Z,27392.00
2019-03-29T09:29:59.029Z,27360.00
2019-03-29T09:30:59.039Z,27392.00
2019-03-29T09:31:59.054Z,27584.00
2019-03-29T09:32:59.062Z,27424.00
2019-03-29T09:33:59.167Z,27520.00
2019-03-29T09:34:59.093Z,27488.00
2019-03-29T09:35:59.105Z,27296.00
2019-03-29T09:37:00.104Z,26752.00
2019-03-29T09:37:59.131Z,26688.00
2019-03-29T09:38:59.145Z,26176.00
2019-03-29T09:39:59.154Z,26080.00
2019-03-29T09:40:59.460Z,25952.00
2019-03-29T09:41:59.178Z,26016.00
2019-03-29T09:43:07.180Z,25984.00
2019-03-29T09:43:59.209Z,26336.00
2019-03-29T09:44:59.223Z,26464.00
2019-03-29T09:45:59.233Z,26176.00
2019-03-29T09:46:59.250Z,26176.00
2019-03-29T09:47:59.264Z,26304.00
2019-03-29T09:48:59.280Z,25920.00
2019-03-29T09:49:59.298Z,25504.00
2019-03-29T09:50:59.307Z,25056.00
2019-03-29T09:51:59.325Z,24448.00
2019-03-29T09:53:01.152Z,24192.00
2019-03-29T09:53:59.372Z,23488.00
2019-03-29T09:54:59.360Z,23616.00
2019-03-29T09:55:59.379Z,23776.00
2019-03-29T09:56:59.395Z,23808.00
2019-03-29T09:57:59.416Z,23744.00
2019-03-29T09:58:59.421Z,23872.00
2019-03-29T09:59:59.432Z,23776.00
2019-03-29T10:00:59.449Z,24064.00
2019-03-29T10:01:59.465Z,24064.00
2019-03-29T10:02:59.481Z,24032.00
2019-03-29T10:03:59.494Z,24640.00
2019-03-29T10:04:59.508Z,24960.00
2019-03-29T10:05:59.518Z,25056.00
2019-03-29T10:06:59.536Z,25312.00
2019-03-29T10:07:59.548Z,25344.00
2019-03-29T10:08:59.562Z,25408.00
2019-03-29T10:09:59.578Z,25728.00
2019-03-29T10:10:59.589Z,26048.00
2019-03-29T10:11:59.603Z,26240.00
2019-03-29T10:12:59.614Z,26656.00
2019-03-29T10:13:59.630Z,26624.00
2019-03-29T10:14:59.643Z,27168.00
2019-03-29T10:15:59.663Z,28032.00
2019-03-29T10:16:59.677Z,28512.00
2019-03-29T10:17:59.686Z,28544.00
2019-03-29T10:18:59.700Z,28448.00
2019-03-29T10:19:59.722Z,28608.00
2019-03-29T10:20:59.733Z,28576.00
2019-03-29T10:21:59.743Z,28480.00
2019-03-29T10:22:59.757Z,28064.00
2019-03-29T10:23:59.770Z,28256.00
2019-03-29T10:25:02.250Z,28384.00
2019-03-29T10:25:59.795Z,28800.00
2019-03-29T10:26:59.808Z,29312.00
2019-03-29T10:27:59.831Z,29216.00
2019-03-29T10:28:59.842Z,29152.00
2019-03-29T10:29:59.857Z,29184.00
2019-03-29T10:30:59.872Z,29728.00
2019-03-29T10:32:00.073Z,30080.00
2019-03-29T10:32:59.895Z,30656.00
2019-03-29T10:33:59.917Z,31008.00
2019-03-29T10:34:59.927Z,31104.00
2019-03-29T10:35:59.939Z,31008.00
2019-03-29T10:36:59.950Z,30752.00
2019-03-29T10:37:59.962Z,31008.00
2019-03-29T10:38:59.975Z,30208.00
2019-03-29T10:39:59.997Z,29952.00
2019-03-29T10:41:00.008Z,29120.00
2019-03-29T10:42:00.020Z,29376.00
2019-03-29T10:43:00.034Z,29696.00
2019-03-29T10:44:00.042Z,29056.00
2019-03-29T10:45:00.380Z,29248.00
2019-03-29T10:46:00.074Z,28992.00
2019-03-29T10:47:00.086Z,28832.00
2019-03-29T10:48:00.108Z,28736.00
2019-03-29T10:49:00.119Z,28544.00
2019-03-29T10:50:00.345Z,28352.00
2019-03-29T10:51:00.144Z,27744.00
2019-03-29T10:52:00.161Z,27264.00
2019-03-29T10:53:00.177Z,27456.00
2019-03-29T10:54:00.188Z,27520.00
2019-03-29T10:55:00.366Z,27168.00
2019-03-29T10:56:00.310Z,27392.00
2019-03-29T10:57:00.224Z,26720.00
2019-03-29T10:58:00.241Z,26400.00
2019-03-29T10:59:00.257Z,26976.00
2019-03-29T11:00:00.408Z,27360.00
2019-03-29T11:01:00.285Z,27104.00
2019-03-29T11:02:00.300Z,27072.00
2019-03-29T11:03:00.311Z,27040.00
2019-03-29T11:04:00.317Z,26816.00
2019-03-29T11:05:00.354Z,26720.00
2019-03-29T11:06:00.351Z,26496.00
2019-03-29T11:07:00.363Z,26464.00
2019-03-29T11:08:00.372Z,26304.00
2019-03-29T11:09:00.383Z,26400.00
2019-03-29T11:10:00.477Z,26400.00
2019-03-29T11:11:00.412Z,25664.00
2019-03-29T11:12:00.429Z,25440.00
2019-03-29T11:13:11.959Z,25472.00
2019-03-29T11:14:00.455Z,25632.00
2019-03-29T11:15:00.468Z,21568.00
2019-03-29T11:16:00.485Z,25216.00
2019-03-29T11:17:00.489Z,24640.00
2019-03-29T11:18:00.498Z,24704.00
2019-03-29T11:19:00.510Z,25312.00
2019-03-29T11:20:00.528Z,25600.00
2019-03-29T11:21:00.540Z,25952.00
2019-03-29T11:22:00.553Z,26080.00
2019-03-29T11:23:00.562Z,26112.00
2019-03-29T11:24:00.575Z,26368.00
2019-03-29T11:25:00.590Z,27456.00
2019-03-29T11:26:00.608Z,28032.00
2019-03-29T11:27:00.622Z,27072.00
2019-03-29T11:28:00.624Z,26208.00
2019-03-29T11:29:00.636Z,25024.00
2019-03-29T11:30:00.649Z,16512.00
2019-03-29T11:31:00.656Z,8092.00
2019-03-29T11:32:00.672Z,6428.00
2019-03-29T11:33:00.683Z,6180.00
2019-03-29T11:34:00.693Z,6124.00
2019-03-29T11:35:00.702Z,6068.00
2019-03-29T11:36:00.707Z,6004.00
2019-03-29T11:37:00.716Z,6012.00
2019-03-29T11:38:00.730Z,6008.00
2019-03-29T11:39:00.744Z,5960.00
2019-03-29T11:40:00.743Z,5956.00
2019-03-29T11:41:00.752Z,5956.00
2019-03-29T11:42:03.519Z,5960.00
2019-03-29T11:43:00.768Z,5944.00
2019-03-29T11:44:00.779Z,5980.00
2019-03-29T11:45:00.786Z,5964.00
2019-03-29T11:46:00.793Z,5952.00
2019-03-29T11:47:00.796Z,5944.00
2019-03-29T11:48:08.259Z,5940.00
2019-03-29T11:49:00.805Z,5940.00
2019-03-29T11:50:00.809Z,5968.00
2019-03-29T11:51:00.824Z,5984.00
2019-03-29T11:52:00.819Z,6012.00
2019-03-29T11:53:00.824Z,6024.00
2019-03-29T11:54:00.823Z,6020.00
2019-03-29T11:55:00.826Z,5976.00
2019-03-29T11:56:00.837Z,5924.00
2019-03-29T11:57:00.837Z,5860.00
2019-03-29T11:58:00.841Z,5768.00
2019-03-29T11:59:00.846Z,5732.00
2019-03-29T12:00:00.843Z,5740.00
2019-03-29T12:01:00.845Z,5720.00
2019-03-29T12:02:00.849Z,5692.00
2019-03-29T12:03:00.846Z,5720.00
2019-03-29T12:04:00.852Z,5712.00
2019-03-29T12:05:00.854Z,5732.00
2019-03-29T12:06:00.858Z,5744.00
2019-03-29T12:07:03.598Z,5656.00
2019-03-29T12:08:00.855Z,5584.00
2019-03-29T12:09:00.858Z,5488.00
2019-03-29T12:10:00.864Z,5436.00
2019-03-29T12:11:00.863Z,5404.00
2019-03-29T12:12:00.866Z,5388.00
2019-03-29T12:13:00.862Z,5368.00
2019-03-29T12:14:00.865Z,5348.00
2019-03-29T12:15:00.861Z,5332.00
2019-03-29T12:16:00.865Z,5304.00
2019-03-29T12:17:00.868Z,5304.00
2019-03-29T12:18:00.867Z,5308.00
2019-03-29T12:19:00.866Z,5308.00
2019-03-29T12:20:00.864Z,5300.00
2019-03-29T12:21:00.865Z,5276.00
2019-03-29T12:22:00.869Z,5244.00
2019-03-29T12:23:00.873Z,5188.00
2019-03-29T12:24:00.879Z,5136.00